sensor_id;sensor_type;location;lat;lon;timestamp;temperature;humidity
44731;DHT22;30458;47.448;19.032;2022-11-13T00:00:54;10.40;99.90
44731;DHT22;30458;47.448;19.032;2022-11-13T00:11:18;10.20;99.90
44731;DHT22;30458;47.448;19.032;2022-11-13T00:21:40;10.10;99.90
44731;DHT22;30458;47.448;19.032;2022-11-13T00:32:01;9.90;99.90
44731;DHT22;30458;47.448;19.032;2022-11-13T00:42:20;9.80;99.90
44731;DHT22;30458;47.448;19.032;2022-11-13T00:52:40;9.70;99.90
44731;DHT22;30458;47.448;19.032;2022-11-13T01:03:01;9.70;99.90
44731;DHT22;30458;47.448;19.032;2022-11-13T01:13:21;9.60;99.90
44731;DHT22;30458;47.448;19.032;2022-11-13T01:23:40;9.40;99.90
44731;DHT22;30458;47.448;19.032;2022-11-13T01:33:59;9.30;99.90
44731;DHT22;30458;47.448;19.032;2022-11-13T01:44:20;9.30;99.90
44731;DHT22;30458;47.448;19.032;2022-11-13T01:54:46;9.10;99.90
44731;DHT22;30458;47.448;19.032;2022-11-13T02:05:06;9.10;99.90
44731;DHT22;30458;47.448;19.032;2022-11-13T02:15:28;9.00;99.90
44731;DHT22;30458;47.448;19.032;2022-11-13T02:25:51;8.90;99.90
44731;DHT22;30458;47.448;19.032;2022-11-13T02:36:11;8.90;99.90
44731;DHT22;30458;47.448;19.032;2022-11-13T02:46:30;8.80;99.90
44731;DHT22;30458;47.448;19.032;2022-11-13T02:56:52;8.90;99.90
44731;DHT22;30458;47.448;19.032;2022-11-13T03:07:14;8.70;99.90
44731;DHT22;30458;47.448;19.032;2022-11-13T03:17:36;8.80;99.90
44731;DHT22;30458;47.448;19.032;2022-11-13T03:27:55;8.70;99.90
44731;DHT22;30458;47.448;19.032;2022-11-13T03:38:14;8.70;99.90
44731;DHT22;30458;47.448;19.032;2022-11-13T03:48:33;8.60;99.90
44731;DHT22;30458;47.448;19.032;2022-11-13T03:58:53;8.40;99.90
44731;DHT22;30458;47.448;19.032;2022-11-13T04:09:14;8.40;99.90
44731;DHT22;30458;47.448;19.032;2022-11-13T04:19:33;8.20;99.90
44731;DHT22;30458;47.448;19.032;2022-11-13T04:29:52;8.20;99.90
44731;DHT22;30458;47.448;19.032;2022-11-13T04:40:11;8.40;99.90
44731;DHT22;30458;47.448;19.032;2022-11-13T04:50:30;8.20;99.90
44731;DHT22;30458;47.448;19.032;2022-11-13T05:00:50;8.10;99.90
44731;DHT22;30458;47.448;19.032;2022-11-13T05:11:09;8.00;99.90
44731;DHT22;30458;47.448;19.032;2022-11-13T05:21:28;8.00;99.90
44731;DHT22;30458;47.448;19.032;2022-11-13T05:31:47;8.20;99.90
44731;DHT22;30458;47.448;19.032;2022-11-13T05:42:08;8.30;99.90
44731;DHT22;30458;47.448;19.032;2022-11-13T05:52:30;8.20;99.90
44731;DHT22;30458;47.448;19.032;2022-11-13T06:02:49;8.10;99.90
44731;DHT22;30458;47.448;19.032;2022-11-13T06:13:09;8.20;99.90
44731;DHT22;30458;47.448;19.032;2022-11-13T06:23:31;8.30;99.90
44731;DHT22;30458;47.448;19.032;2022-11-13T06:33:53;8.30;99.90
44731;DHT22;30458;47.448;19.032;2022-11-13T06:44:13;8.50;99.90
44731;DHT22;30458;47.448;19.032;2022-11-13T06:54:34;8.60;99.90
44731;DHT22;30458;47.448;19.032;2022-11-13T07:04:53;8.50;99.90
44731;DHT22;30458;47.448;19.032;2022-11-13T07:15:15;8.70;99.90
44731;DHT22;30458;47.448;19.032;2022-11-13T07:25:34;8.50;99.90
44731;DHT22;30458;47.448;19.032;2022-11-13T07:35:57;8.80;99.90
44731;DHT22;30458;47.448;19.032;2022-11-13T07:46:16;8.90;99.90
44731;DHT22;30458;47.448;19.032;2022-11-13T07:56:35;9.10;99.90
44731;DHT22;30458;47.448;19.032;2022-11-13T08:06:54;9.10;99.90
44731;DHT22;30458;47.448;19.032;2022-11-13T08:17:16;9.20;99.90
44731;DHT22;30458;47.448;19.032;2022-11-13T08:27:35;9.60;99.90
44731;DHT22;30458;47.448;19.032;2022-11-13T08:37:59;9.80;99.90
44731;DHT22;30458;47.448;19.032;2022-11-13T08:48:22;10.00;99.90
44731;DHT22;30458;47.448;19.032;2022-11-13T08:58:41;10.20;99.90
44731;DHT22;30458;47.448;19.032;2022-11-13T09:09:00;10.40;99.90
44731;DHT22;30458;47.448;19.032;2022-11-13T09:19:20;10.60;99.90
44731;DHT22;30458;47.448;19.032;2022-11-13T09:29:39;10.70;99.90
44731;DHT22;30458;47.448;19.032;2022-11-13T09:39:58;10.90;99.90
44731;DHT22;30458;47.448;19.032;2022-11-13T09:50:28;11.30;99.90
44731;DHT22;30458;47.448;19.032;2022-11-13T10:00:54;11.80;99.90
44731;DHT22;30458;47.448;19.032;2022-11-13T10:32:26;12.20;99.90
44731;DHT22;30458;47.448;19.032;2022-11-13T10:42:48;12.20;99.90
44731;DHT22;30458;47.448;19.032;2022-11-13T10:53:16;12.10;99.90
44731;DHT22;30458;47.448;19.032;2022-11-13T11:03:35;12.10;99.90
44731;DHT22;30458;47.448;19.032;2022-11-13T11:35:39;12.10;99.90
44731;DHT22;30458;47.448;19.032;2022-11-13T11:46:01;12.20;99.90
44731;DHT22;30458;47.448;19.032;2022-11-13T11:56:32;12.30;99.90
44731;DHT22;30458;47.448;19.032;2022-11-13T12:28:23;12.60;99.90
44731;DHT22;30458;47.448;19.032;2022-11-13T12:49:30;12.70;99.90
44731;DHT22;30458;47.448;19.032;2022-11-13T12:59:56;12.80;99.90
44731;DHT22;30458;47.448;19.032;2022-11-13T13:21:03;12.90;99.90
44731;DHT22;30458;47.448;19.032;2022-11-13T13:53:01;13.00;99.90
44731;DHT22;30458;47.448;19.032;2022-11-13T14:03:22;13.00;99.90
44731;DHT22;30458;47.448;19.032;2022-11-13T14:13:43;13.00;99.90
44731;DHT22;30458;47.448;19.032;2022-11-13T14:24:07;13.00;99.90
44731;DHT22;30458;47.448;19.032;2022-11-13T14:34:29;13.00;99.90
44731;DHT22;30458;47.448;19.032;2022-11-13T14:44:48;12.90;99.90
44731;DHT22;30458;47.448;19.032;2022-11-13T14:55:20;12.90;99.90
44731;DHT22;30458;47.448;19.032;2022-11-13T15:05:41;12.70;99.90
44731;DHT22;30458;47.448;19.032;2022-11-13T15:16:00;12.50;99.90
44731;DHT22;30458;47.448;19.032;2022-11-13T15:26:19;12.40;99.90
44731;DHT22;30458;47.448;19.032;2022-11-13T15:36:39;12.40;99.90
44731;DHT22;30458;47.448;19.032;2022-11-13T15:47:00;12.40;99.90
44731;DHT22;30458;47.448;19.032;2022-11-13T15:57:28;12.30;99.90
44731;DHT22;30458;47.448;19.032;2022-11-13T16:07:47;12.20;99.90
44731;DHT22;30458;47.448;19.032;2022-11-13T16:18:18;12.10;99.90
44731;DHT22;30458;47.448;19.032;2022-11-13T16:28:40;11.90;99.90
44731;DHT22;30458;47.448;19.032;2022-11-13T16:39:00;11.90;99.90
44731;DHT22;30458;47.448;19.032;2022-11-13T16:49:20;11.90;99.90
44731;DHT22;30458;47.448;19.032;2022-11-13T16:59:42;11.80;99.90
44731;DHT22;30458;47.448;19.032;2022-11-13T17:10:01;11.60;99.90
44731;DHT22;30458;47.448;19.032;2022-11-13T17:20:20;11.40;99.90
44731;DHT22;30458;47.448;19.032;2022-11-13T17:30:39;11.30;99.90
44731;DHT22;30458;47.448;19.032;2022-11-13T17:41:07;11.20;99.90
44731;DHT22;30458;47.448;19.032;2022-11-13T17:51:27;11.20;99.90
44731;DHT22;30458;47.448;19.032;2022-11-13T18:01:49;11.10;99.90
44731;DHT22;30458;47.448;19.032;2022-11-13T18:12:08;11.00;99.90
44731;DHT22;30458;47.448;19.032;2022-11-13T18:22:27;11.00;99.90
44731;DHT22;30458;47.448;19.032;2022-11-13T18:32:47;10.50;99.90
44731;DHT22;30458;47.448;19.032;2022-11-13T18:43:06;9.90;99.90
44731;DHT22;30458;47.448;19.032;2022-11-13T18:53:28;9.90;99.90
44731;DHT22;30458;47.448;19.032;2022-11-13T19:03:48;10.00;99.90
44731;DHT22;30458;47.448;19.032;2022-11-13T19:14:08;9.90;99.90
44731;DHT22;30458;47.448;19.032;2022-11-13T19:24:32;10.00;99.90
44731;DHT22;30458;47.448;19.032;2022-11-13T19:34:53;10.00;99.90
44731;DHT22;30458;47.448;19.032;2022-11-13T19:45:14;9.90;99.90
44731;DHT22;30458;47.448;19.032;2022-11-13T19:55:33;9.50;99.90
44731;DHT22;30458;47.448;19.032;2022-11-13T20:05:55;9.20;99.90
44731;DHT22;30458;47.448;19.032;2022-11-13T20:16:17;9.20;99.90
44731;DHT22;30458;47.448;19.032;2022-11-13T20:26:41;9.10;99.90
44731;DHT22;30458;47.448;19.032;2022-11-13T20:37:01;8.90;99.90
44731;DHT22;30458;47.448;19.032;2022-11-13T20:47:20;8.80;99.90
44731;DHT22;30458;47.448;19.032;2022-11-13T20:57:39;8.80;99.90
44731;DHT22;30458;47.448;19.032;2022-11-13T21:07:58;8.60;99.90
44731;DHT22;30458;47.448;19.032;2022-11-13T21:18:18;8.80;99.90
44731;DHT22;30458;47.448;19.032;2022-11-13T21:28:39;9.00;99.90
44731;DHT22;30458;47.448;19.032;2022-11-13T21:38:58;9.00;99.90
44731;DHT22;30458;47.448;19.032;2022-11-13T21:49:17;8.90;99.90
44731;DHT22;30458;47.448;19.032;2022-11-13T21:59:37;8.90;99.90
44731;DHT22;30458;47.448;19.032;2022-11-13T22:09:56;8.80;99.90
44731;DHT22;30458;47.448;19.032;2022-11-13T22:20:15;8.80;99.90
44731;DHT22;30458;47.448;19.032;2022-11-13T22:30:34;8.80;99.90
44731;DHT22;30458;47.448;19.032;2022-11-13T22:40:59;8.80;99.90
44731;DHT22;30458;47.448;19.032;2022-11-13T22:51:22;8.80;99.90
44731;DHT22;30458;47.448;19.032;2022-11-13T23:01:42;8.80;99.90
44731;DHT22;30458;47.448;19.032;2022-11-13T23:12:04;8.80;99.90
44731;DHT22;30458;47.448;19.032;2022-11-13T23:22:23;8.80;99.90
44731;DHT22;30458;47.448;19.032;2022-11-13T23:32:42;8.90;99.90
44731;DHT22;30458;47.448;19.032;2022-11-13T23:43:02;8.80;99.90
44731;DHT22;30458;47.448;19.032;2022-11-13T23:53:21;8.70;99.90
